sensor_id;sensor_type;location;lat;lon;timestamp;temperature;humidity
73955;DHT22;62306;52.516;13.290;2023-03-09T00:00:21;2.10;98.70
73955;DHT22;62306;52.516;13.290;2023-03-09T00:02:48;2.10;98.40
73955;DHT22;62306;52.516;13.290;2023-03-09T00:05:15;2.10;98.30
73955;DHT22;62306;52.516;13.290;2023-03-09T00:07:43;2.10;98.40
73955;DHT22;62306;52.516;13.290;2023-03-09T00:10:12;2.10;98.10
73955;DHT22;62306;52.516;13.290;2023-03-09T00:12:40;2.10;97.60
73955;DHT22;62306;52.516;13.290;2023-03-09T00:15:08;2.10;97.90
73955;DHT22;62306;52.516;13.290;2023-03-09T00:17:35;2.20;97.50
73955;DHT22;62306;52.516;13.290;2023-03-09T00:20:03;2.20;97.40
73955;DHT22;62306;52.516;13.290;2023-03-09T00:22:31;2.10;97.90
73955;DHT22;62306;52.516;13.290;2023-03-09T00:24:58;2.10;97.90
73955;DHT22;62306;52.516;13.290;2023-03-09T00:27:26;2.10;97.70
73955;DHT22;62306;52.516;13.290;2023-03-09T00:29:53;2.10;97.70
73955;DHT22;62306;52.516;13.290;2023-03-09T00:32:20;2.20;97.60
73955;DHT22;62306;52.516;13.290;2023-03-09T00:34:47;2.10;97.40
73955;DHT22;62306;52.516;13.290;2023-03-09T00:37:14;2.10;97.80
73955;DHT22;62306;52.516;13.290;2023-03-09T00:39:41;2.10;97.90
73955;DHT22;62306;52.516;13.290;2023-03-09T00:42:08;2.10;98.00
73955;DHT22;62306;52.516;13.290;2023-03-09T00:44:36;2.10;97.90
73955;DHT22;62306;52.516;13.290;2023-03-09T00:47:03;2.10;97.70
73955;DHT22;62306;52.516;13.290;2023-03-09T00:49:30;2.10;97.70
73955;DHT22;62306;52.516;13.290;2023-03-09T00:51:57;2.00;97.80
73955;DHT22;62306;52.516;13.290;2023-03-09T00:54:24;2.00;97.70
73955;DHT22;62306;52.516;13.290;2023-03-09T00:56:50;2.00;97.30
73955;DHT22;62306;52.516;13.290;2023-03-09T00:59:17;2.00;97.70
73955;DHT22;62306;52.516;13.290;2023-03-09T01:01:45;2.00;97.50
73955;DHT22;62306;52.516;13.290;2023-03-09T01:04:12;2.00;97.20
73955;DHT22;62306;52.516;13.290;2023-03-09T01:06:39;2.00;97.30
73955;DHT22;62306;52.516;13.290;2023-03-09T01:09:06;2.10;97.30
73955;DHT22;62306;52.516;13.290;2023-03-09T01:11:33;2.00;97.10
73955;DHT22;62306;52.516;13.290;2023-03-09T01:14:00;2.00;97.30
73955;DHT22;62306;52.516;13.290;2023-03-09T01:16:27;2.10;97.20
73955;DHT22;62306;52.516;13.290;2023-03-09T01:18:55;2.10;97.20
73955;DHT22;62306;52.516;13.290;2023-03-09T01:21:22;2.00;97.40
73955;DHT22;62306;52.516;13.290;2023-03-09T01:23:49;2.10;97.30
73955;DHT22;62306;52.516;13.290;2023-03-09T01:26:16;2.10;97.00
73955;DHT22;62306;52.516;13.290;2023-03-09T01:28:43;2.10;97.70
73955;DHT22;62306;52.516;13.290;2023-03-09T01:31:12;2.10;98.00
73955;DHT22;62306;52.516;13.290;2023-03-09T01:33:39;2.20;97.90
73955;DHT22;62306;52.516;13.290;2023-03-09T01:36:11;2.20;97.80
73955;DHT22;62306;52.516;13.290;2023-03-09T01:38:38;2.30;96.80
73955;DHT22;62306;52.516;13.290;2023-03-09T01:41:05;2.20;97.50
73955;DHT22;62306;52.516;13.290;2023-03-09T01:43:34;2.30;97.30
73955;DHT22;62306;52.516;13.290;2023-03-09T01:46:36;2.30;97.40
73955;DHT22;62306;52.516;13.290;2023-03-09T01:49:18;2.20;97.50
73955;DHT22;62306;52.516;13.290;2023-03-09T01:51:50;2.30;97.80
73955;DHT22;62306;52.516;13.290;2023-03-09T01:54:23;2.30;97.60
73955;DHT22;62306;52.516;13.290;2023-03-09T01:56:54;2.30;98.10
73955;DHT22;62306;52.516;13.290;2023-03-09T01:59:24;2.40;98.00
73955;DHT22;62306;52.516;13.290;2023-03-09T02:01:52;2.30;97.90
73955;DHT22;62306;52.516;13.290;2023-03-09T02:04:23;2.20;98.40
73955;DHT22;62306;52.516;13.290;2023-03-09T02:06:52;2.10;98.60
73955;DHT22;62306;52.516;13.290;2023-03-09T02:09:24;1.90;98.70
73955;DHT22;62306;52.516;13.290;2023-03-09T02:11:52;2.00;98.90
73955;DHT22;62306;52.516;13.290;2023-03-09T02:14:20;2.00;99.00
73955;DHT22;62306;52.516;13.290;2023-03-09T02:16:47;1.90;99.30
73955;DHT22;62306;52.516;13.290;2023-03-09T02:19:23;1.80;99.30
73955;DHT22;62306;52.516;13.290;2023-03-09T02:21:54;1.90;99.60
73955;DHT22;62306;52.516;13.290;2023-03-09T02:24:27;1.90;99.50
73955;DHT22;62306;52.516;13.290;2023-03-09T02:27:00;1.90;99.90
73955;DHT22;62306;52.516;13.290;2023-03-09T02:29:29;1.80;99.90
73955;DHT22;62306;52.516;13.290;2023-03-09T02:31:57;1.80;99.90
73955;DHT22;62306;52.516;13.290;2023-03-09T02:34:24;1.80;99.90
73955;DHT22;62306;52.516;13.290;2023-03-09T02:36:51;1.80;99.90
73955;DHT22;62306;52.516;13.290;2023-03-09T02:39:23;1.70;99.90
73955;DHT22;62306;52.516;13.290;2023-03-09T02:41:56;1.70;99.90
73955;DHT22;62306;52.516;13.290;2023-03-09T02:44:23;1.70;99.90
73955;DHT22;62306;52.516;13.290;2023-03-09T02:46:52;1.60;99.90
73955;DHT22;62306;52.516;13.290;2023-03-09T02:49:19;1.60;99.90
73955;DHT22;62306;52.516;13.290;2023-03-09T02:51:46;1.60;99.90
73955;DHT22;62306;52.516;13.290;2023-03-09T02:54:12;1.50;99.90
73955;DHT22;62306;52.516;13.290;2023-03-09T02:56:39;1.50;99.90
73955;DHT22;62306;52.516;13.290;2023-03-09T02:59:06;1.40;99.90
73955;DHT22;62306;52.516;13.290;2023-03-09T03:01:33;1.50;99.90
73955;DHT22;62306;52.516;13.290;2023-03-09T03:04:01;1.40;99.90
73955;DHT22;62306;52.516;13.290;2023-03-09T03:06:28;1.40;99.90
73955;DHT22;62306;52.516;13.290;2023-03-09T03:08:55;1.40;99.90
73955;DHT22;62306;52.516;13.290;2023-03-09T03:11:22;1.40;99.90
73955;DHT22;62306;52.516;13.290;2023-03-09T03:13:48;1.40;99.90
73955;DHT22;62306;52.516;13.290;2023-03-09T03:16:15;1.40;99.90
73955;DHT22;62306;52.516;13.290;2023-03-09T03:18:42;1.40;99.90
73955;DHT22;62306;52.516;13.290;2023-03-09T03:21:10;1.40;99.90
73955;DHT22;62306;52.516;13.290;2023-03-09T03:23:37;1.40;99.90
73955;DHT22;62306;52.516;13.290;2023-03-09T03:26:06;1.40;99.90
73955;DHT22;62306;52.516;13.290;2023-03-09T03:28:33;1.30;99.90
73955;DHT22;62306;52.516;13.290;2023-03-09T03:31:00;1.30;99.90
73955;DHT22;62306;52.516;13.290;2023-03-09T03:33:27;1.40;99.90
73955;DHT22;62306;52.516;13.290;2023-03-09T03:35:54;1.40;99.90
73955;DHT22;62306;52.516;13.290;2023-03-09T03:38:22;1.40;99.90
73955;DHT22;62306;52.516;13.290;2023-03-09T03:40:49;1.20;99.90
73955;DHT22;62306;52.516;13.290;2023-03-09T03:43:16;1.30;99.90
73955;DHT22;62306;52.516;13.290;2023-03-09T03:45:42;1.20;99.90
73955;DHT22;62306;52.516;13.290;2023-03-09T03:48:10;1.20;99.90
73955;DHT22;62306;52.516;13.290;2023-03-09T03:50:37;1.20;99.90
73955;DHT22;62306;52.516;13.290;2023-03-09T03:53:04;1.20;99.90
73955;DHT22;62306;52.516;13.290;2023-03-09T03:55:32;1.10;99.90
73955;DHT22;62306;52.516;13.290;2023-03-09T03:57:59;1.20;99.90
73955;DHT22;62306;52.516;13.290;2023-03-09T04:00:26;1.20;99.90
73955;DHT22;62306;52.516;13.290;2023-03-09T04:02:53;1.10;99.90
73955;DHT22;62306;52.516;13.290;2023-03-09T04:05:20;1.10;99.90
73955;DHT22;62306;52.516;13.290;2023-03-09T04:07:47;1.10;99.90
73955;DHT22;62306;52.516;13.290;2023-03-09T04:12:42;1.10;99.90
73955;DHT22;62306;52.516;13.290;2023-03-09T04:15:09;1.10;99.90
73955;DHT22;62306;52.516;13.290;2023-03-09T04:17:36;1.10;99.90
73955;DHT22;62306;52.516;13.290;2023-03-09T04:20:04;1.10;99.90
73955;DHT22;62306;52.516;13.290;2023-03-09T04:22:31;1.00;99.90
73955;DHT22;62306;52.516;13.290;2023-03-09T04:24:58;1.00;99.90
73955;DHT22;62306;52.516;13.290;2023-03-09T04:27:24;1.00;99.90
73955;DHT22;62306;52.516;13.290;2023-03-09T04:29:53;1.10;99.90
73955;DHT22;62306;52.516;13.290;2023-03-09T04:32:19;1.10;99.90
73955;DHT22;62306;52.516;13.290;2023-03-09T04:34:46;1.20;99.90
73955;DHT22;62306;52.516;13.290;2023-03-09T04:37:13;1.10;99.90
73955;DHT22;62306;52.516;13.290;2023-03-09T04:39:40;1.10;99.90
73955;DHT22;62306;52.516;13.290;2023-03-09T04:42:07;1.10;99.90
73955;DHT22;62306;52.516;13.290;2023-03-09T04:44:34;1.20;99.90
73955;DHT22;62306;52.516;13.290;2023-03-09T04:47:02;1.20;99.90
73955;DHT22;62306;52.516;13.290;2023-03-09T04:49:29;1.10;99.90
73955;DHT22;62306;52.516;13.290;2023-03-09T04:51:56;1.10;99.90
73955;DHT22;62306;52.516;13.290;2023-03-09T04:54:23;1.10;99.90
73955;DHT22;62306;52.516;13.290;2023-03-09T04:56:50;1.20;99.90
73955;DHT22;62306;52.516;13.290;2023-03-09T04:59:17;1.20;99.90
73955;DHT22;62306;52.516;13.290;2023-03-09T05:01:43;1.10;99.90
73955;DHT22;62306;52.516;13.290;2023-03-09T05:04:12;1.20;99.90
73955;DHT22;62306;52.516;13.290;2023-03-09T05:06:39;1.20;99.90
73955;DHT22;62306;52.516;13.290;2023-03-09T05:09:06;1.20;99.90
73955;DHT22;62306;52.516;13.290;2023-03-09T05:11:33;1.20;99.90
73955;DHT22;62306;52.516;13.290;2023-03-09T05:14:00;1.20;99.90
73955;DHT22;62306;52.516;13.290;2023-03-09T05:16:26;1.10;99.90
73955;DHT22;62306;52.516;13.290;2023-03-09T05:18:53;1.20;99.90
73955;DHT22;62306;52.516;13.290;2023-03-09T05:21:22;1.20;99.90
73955;DHT22;62306;52.516;13.290;2023-03-09T05:23:48;1.30;99.90
73955;DHT22;62306;52.516;13.290;2023-03-09T05:26:15;1.20;99.90
73955;DHT22;62306;52.516;13.290;2023-03-09T05:28:42;1.20;99.90
73955;DHT22;62306;52.516;13.290;2023-03-09T05:31:12;1.20;99.90
73955;DHT22;62306;52.516;13.290;2023-03-09T05:33:39;1.30;99.90
73955;DHT22;62306;52.516;13.290;2023-03-09T05:36:15;1.20;99.90
73955;DHT22;62306;52.516;13.290;2023-03-09T05:38:43;1.20;99.90
73955;DHT22;62306;52.516;13.290;2023-03-09T05:41:10;1.20;99.90
73955;DHT22;62306;52.516;13.290;2023-03-09T05:43:37;1.20;99.90
73955;DHT22;62306;52.516;13.290;2023-03-09T05:46:07;1.20;99.90
73955;DHT22;62306;52.516;13.290;2023-03-09T05:48:35;1.20;99.90
73955;DHT22;62306;52.516;13.290;2023-03-09T05:51:02;1.10;99.90
73955;DHT22;62306;52.516;13.290;2023-03-09T05:53:30;1.10;99.90
73955;DHT22;62306;52.516;13.290;2023-03-09T05:55:59;1.10;99.90
73955;DHT22;62306;52.516;13.290;2023-03-09T05:58:26;1.10;99.90
73955;DHT22;62306;52.516;13.290;2023-03-09T06:00:53;1.10;99.90
73955;DHT22;62306;52.516;13.290;2023-03-09T06:03:22;1.10;99.90
73955;DHT22;62306;52.516;13.290;2023-03-09T06:05:57;1.10;99.90
73955;DHT22;62306;52.516;13.290;2023-03-09T06:08:24;1.20;99.90
73955;DHT22;62306;52.516;13.290;2023-03-09T06:10:51;1.30;99.90
73955;DHT22;62306;52.516;13.290;2023-03-09T06:13:19;1.20;99.90
73955;DHT22;62306;52.516;13.290;2023-03-09T06:15:46;1.20;99.90
73955;DHT22;62306;52.516;13.290;2023-03-09T06:18:13;1.30;99.90
73955;DHT22;62306;52.516;13.290;2023-03-09T06:20:40;1.20;99.90
73955;DHT22;62306;52.516;13.290;2023-03-09T06:23:07;1.20;99.90
73955;DHT22;62306;52.516;13.290;2023-03-09T06:25:35;1.30;99.90
73955;DHT22;62306;52.516;13.290;2023-03-09T06:28:02;1.20;99.90
73955;DHT22;62306;52.516;13.290;2023-03-09T06:30:31;1.20;99.90
73955;DHT22;62306;52.516;13.290;2023-03-09T06:32:58;1.20;99.90
73955;DHT22;62306;52.516;13.290;2023-03-09T06:35:24;1.20;99.90
73955;DHT22;62306;52.516;13.290;2023-03-09T06:37:51;1.20;99.90
73955;DHT22;62306;52.516;13.290;2023-03-09T06:40:18;1.20;99.90
73955;DHT22;62306;52.516;13.290;2023-03-09T06:42:45;1.20;99.90
73955;DHT22;62306;52.516;13.290;2023-03-09T06:45:12;1.30;99.90
73955;DHT22;62306;52.516;13.290;2023-03-09T06:47:41;1.30;99.90
73955;DHT22;62306;52.516;13.290;2023-03-09T06:50:09;1.30;99.90
73955;DHT22;62306;52.516;13.290;2023-03-09T06:52:36;1.20;99.90
73955;DHT22;62306;52.516;13.290;2023-03-09T06:55:03;1.30;99.90
73955;DHT22;62306;52.516;13.290;2023-03-09T06:57:30;1.30;99.90
73955;DHT22;62306;52.516;13.290;2023-03-09T06:59:57;1.30;99.90
73955;DHT22;62306;52.516;13.290;2023-03-09T07:02:24;1.30;99.90
73955;DHT22;62306;52.516;13.290;2023-03-09T07:04:52;1.40;99.90
73955;DHT22;62306;52.516;13.290;2023-03-09T07:07:19;1.40;99.90
73955;DHT22;62306;52.516;13.290;2023-03-09T07:09:45;1.50;99.90
73955;DHT22;62306;52.516;13.290;2023-03-09T07:12:12;1.50;99.90
73955;DHT22;62306;52.516;13.290;2023-03-09T07:14:39;1.40;99.90
73955;DHT22;62306;52.516;13.290;2023-03-09T07:17:11;1.40;99.90
73955;DHT22;62306;52.516;13.290;2023-03-09T07:19:38;1.50;99.90
73955;DHT22;62306;52.516;13.290;2023-03-09T07:22:07;1.50;99.90
73955;DHT22;62306;52.516;13.290;2023-03-09T07:24:37;1.40;99.90
73955;DHT22;62306;52.516;13.290;2023-03-09T07:27:04;1.40;99.90
73955;DHT22;62306;52.516;13.290;2023-03-09T07:29:32;1.40;99.90
73955;DHT22;62306;52.516;13.290;2023-03-09T07:32:01;1.40;99.90
73955;DHT22;62306;52.516;13.290;2023-03-09T07:34:28;1.40;99.90
73955;DHT22;62306;52.516;13.290;2023-03-09T07:36:55;1.40;99.90
73955;DHT22;62306;52.516;13.290;2023-03-09T07:39:23;1.50;99.90
73955;DHT22;62306;52.516;13.290;2023-03-09T07:41:50;1.40;99.90
73955;DHT22;62306;52.516;13.290;2023-03-09T07:44:17;1.50;99.90
73955;DHT22;62306;52.516;13.290;2023-03-09T07:46:44;1.50;99.90
73955;DHT22;62306;52.516;13.290;2023-03-09T07:49:11;1.50;99.90
73955;DHT22;62306;52.516;13.290;2023-03-09T07:51:38;1.40;99.90
73955;DHT22;62306;52.516;13.290;2023-03-09T07:54:05;1.40;99.90
73955;DHT22;62306;52.516;13.290;2023-03-09T07:56:34;1.50;99.90
73955;DHT22;62306;52.516;13.290;2023-03-09T07:59:00;1.50;99.90
73955;DHT22;62306;52.516;13.290;2023-03-09T08:01:28;1.60;99.90
73955;DHT22;62306;52.516;13.290;2023-03-09T08:03:54;1.70;99.90
73955;DHT22;62306;52.516;13.290;2023-03-09T08:06:22;1.60;99.90
73955;DHT22;62306;52.516;13.290;2023-03-09T08:08:49;1.60;99.80
73955;DHT22;62306;52.516;13.290;2023-03-09T08:11:16;1.50;99.30
73955;DHT22;62306;52.516;13.290;2023-03-09T08:13:44;1.60;99.90
73955;DHT22;62306;52.516;13.290;2023-03-09T08:16:11;1.60;99.20
73955;DHT22;62306;52.516;13.290;2023-03-09T08:18:38;1.70;99.60
73955;DHT22;62306;52.516;13.290;2023-03-09T08:21:06;1.80;99.50
73955;DHT22;62306;52.516;13.290;2023-03-09T08:23:33;2.00;98.60
73955;DHT22;62306;52.516;13.290;2023-03-09T08:26:03;1.80;98.30
73955;DHT22;62306;52.516;13.290;2023-03-09T08:28:30;1.80;98.80
73955;DHT22;62306;52.516;13.290;2023-03-09T08:30:59;1.90;98.80
73955;DHT22;62306;52.516;13.290;2023-03-09T08:33:26;1.90;97.90
73955;DHT22;62306;52.516;13.290;2023-03-09T08:35:53;2.00;98.20
73955;DHT22;62306;52.516;13.290;2023-03-09T08:38:20;2.00;98.20
73955;DHT22;62306;52.516;13.290;2023-03-09T08:40:47;2.00;98.40
73955;DHT22;62306;52.516;13.290;2023-03-09T08:43:14;2.00;98.50
73955;DHT22;62306;52.516;13.290;2023-03-09T08:45:41;2.00;97.80
73955;DHT22;62306;52.516;13.290;2023-03-09T08:48:09;1.90;97.70
73955;DHT22;62306;52.516;13.290;2023-03-09T08:50:37;2.00;98.00
73955;DHT22;62306;52.516;13.290;2023-03-09T08:53:04;1.90;97.80
73955;DHT22;62306;52.516;13.290;2023-03-09T08:55:30;1.80;97.90
73955;DHT22;62306;52.516;13.290;2023-03-09T08:57:57;1.70;98.20
73955;DHT22;62306;52.516;13.290;2023-03-09T09:00:25;1.70;98.20
73955;DHT22;62306;52.516;13.290;2023-03-09T09:02:52;1.80;98.50
73955;DHT22;62306;52.516;13.290;2023-03-09T09:05:20;1.90;98.30
73955;DHT22;62306;52.516;13.290;2023-03-09T09:07:47;1.90;97.50
73955;DHT22;62306;52.516;13.290;2023-03-09T09:10:14;1.90;97.80
73955;DHT22;62306;52.516;13.290;2023-03-09T09:12:41;1.80;98.10
73955;DHT22;62306;52.516;13.290;2023-03-09T09:15:08;1.90;98.60
73955;DHT22;62306;52.516;13.290;2023-03-09T09:17:36;1.90;98.10
73955;DHT22;62306;52.516;13.290;2023-03-09T09:20:03;2.00;98.50
73955;DHT22;62306;52.516;13.290;2023-03-09T09:22:32;2.00;97.50
73955;DHT22;62306;52.516;13.290;2023-03-09T09:24:59;2.00;98.10
73955;DHT22;62306;52.516;13.290;2023-03-09T09:27:26;2.10;98.00
73955;DHT22;62306;52.516;13.290;2023-03-09T09:29:53;2.10;97.50
73955;DHT22;62306;52.516;13.290;2023-03-09T09:32:21;2.20;97.40
73955;DHT22;62306;52.516;13.290;2023-03-09T09:34:48;2.20;97.80
73955;DHT22;62306;52.516;13.290;2023-03-09T09:37:15;2.20;97.00
73955;DHT22;62306;52.516;13.290;2023-03-09T09:39:44;2.20;97.30
73955;DHT22;62306;52.516;13.290;2023-03-09T09:42:19;2.20;97.10
73955;DHT22;62306;52.516;13.290;2023-03-09T09:44:48;2.30;97.00
73955;DHT22;62306;52.516;13.290;2023-03-09T09:47:19;2.20;97.20
73955;DHT22;62306;52.516;13.290;2023-03-09T09:49:50;2.30;97.60
73955;DHT22;62306;52.516;13.290;2023-03-09T09:52:29;2.30;96.80
73955;DHT22;62306;52.516;13.290;2023-03-09T09:55:09;2.30;96.80
73955;DHT22;62306;52.516;13.290;2023-03-09T09:57:41;2.30;96.90
73955;DHT22;62306;52.516;13.290;2023-03-09T10:00:13;2.30;96.80
73955;DHT22;62306;52.516;13.290;2023-03-09T10:02:52;2.20;96.70
73955;DHT22;62306;52.516;13.290;2023-03-09T10:05:26;2.20;96.90
73955;DHT22;62306;52.516;13.290;2023-03-09T10:07:55;2.10;97.10
73955;DHT22;62306;52.516;13.290;2023-03-09T10:10:27;2.20;97.20
73955;DHT22;62306;52.516;13.290;2023-03-09T10:12:58;2.10;97.00
73955;DHT22;62306;52.516;13.290;2023-03-09T10:15:29;2.10;96.70
73955;DHT22;62306;52.516;13.290;2023-03-09T10:17:59;2.10;97.50
73955;DHT22;62306;52.516;13.290;2023-03-09T10:20:32;2.10;97.30
73955;DHT22;62306;52.516;13.290;2023-03-09T10:22:59;2.10;97.50
73955;DHT22;62306;52.516;13.290;2023-03-09T10:25:30;2.30;97.60
73955;DHT22;62306;52.516;13.290;2023-03-09T10:28:02;2.50;96.60
73955;DHT22;62306;52.516;13.290;2023-03-09T10:30:37;2.50;96.20
73955;DHT22;62306;52.516;13.290;2023-03-09T10:33:12;2.40;96.50
73955;DHT22;62306;52.516;13.290;2023-03-09T10:35:43;2.50;96.70
73955;DHT22;62306;52.516;13.290;2023-03-09T10:38:12;2.60;96.70
73955;DHT22;62306;52.516;13.290;2023-03-09T10:40:44;2.70;96.70
73955;DHT22;62306;52.516;13.290;2023-03-09T10:43:17;2.70;96.20
73955;DHT22;62306;52.516;13.290;2023-03-09T10:45:46;2.70;96.10
73955;DHT22;62306;52.516;13.290;2023-03-09T10:48:20;2.70;96.30
73955;DHT22;62306;52.516;13.290;2023-03-09T10:50:58;2.70;96.20
73955;DHT22;62306;52.516;13.290;2023-03-09T10:53:30;2.60;96.30
73955;DHT22;62306;52.516;13.290;2023-03-09T10:56:05;2.60;96.10
73955;DHT22;62306;52.516;13.290;2023-03-09T10:58:32;2.60;95.90
73955;DHT22;62306;52.516;13.290;2023-03-09T11:01:01;2.60;96.20
73955;DHT22;62306;52.516;13.290;2023-03-09T11:03:36;2.50;96.10
73955;DHT22;62306;52.516;13.290;2023-03-09T11:06:25;2.60;96.80
73955;DHT22;62306;52.516;13.290;2023-03-09T11:08:59;2.60;96.30
73955;DHT22;62306;52.516;13.290;2023-03-09T11:11:31;2.70;96.00
73955;DHT22;62306;52.516;13.290;2023-03-09T11:13:59;2.70;95.80
73955;DHT22;62306;52.516;13.290;2023-03-09T11:16:27;2.70;95.80
73955;DHT22;62306;52.516;13.290;2023-03-09T11:19:13;2.80;95.70
73955;DHT22;62306;52.516;13.290;2023-03-09T11:21:45;2.80;95.70
73955;DHT22;62306;52.516;13.290;2023-03-09T11:24:14;2.80;95.40
73955;DHT22;62306;52.516;13.290;2023-03-09T11:26:46;2.70;95.60
73955;DHT22;62306;52.516;13.290;2023-03-09T11:29:21;2.70;95.60
73955;DHT22;62306;52.516;13.290;2023-03-09T11:31:54;2.70;95.90
73955;DHT22;62306;52.516;13.290;2023-03-09T11:34:25;2.60;96.00
73955;DHT22;62306;52.516;13.290;2023-03-09T11:36:56;2.50;96.20
73955;DHT22;62306;52.516;13.290;2023-03-09T11:39:26;2.50;96.50
73955;DHT22;62306;52.516;13.290;2023-03-09T11:41:58;2.60;96.60
73955;DHT22;62306;52.516;13.290;2023-03-09T11:44:31;2.70;96.60
73955;DHT22;62306;52.516;13.290;2023-03-09T11:47:03;2.80;96.60
73955;DHT22;62306;52.516;13.290;2023-03-09T11:49:31;2.60;96.30
73955;DHT22;62306;52.516;13.290;2023-03-09T11:51:59;2.60;96.50
73955;DHT22;62306;52.516;13.290;2023-03-09T11:54:30;2.60;96.70
73955;DHT22;62306;52.516;13.290;2023-03-09T11:57:02;2.60;96.80
73955;DHT22;62306;52.516;13.290;2023-03-09T11:59:36;2.60;97.00
73955;DHT22;62306;52.516;13.290;2023-03-09T12:02:10;2.60;96.70
73955;DHT22;62306;52.516;13.290;2023-03-09T12:04:38;2.50;97.10
73955;DHT22;62306;52.516;13.290;2023-03-09T12:07:07;2.50;97.40
73955;DHT22;62306;52.516;13.290;2023-03-09T12:09:48;2.50;96.90
73955;DHT22;62306;52.516;13.290;2023-03-09T12:12:26;2.50;97.20
73955;DHT22;62306;52.516;13.290;2023-03-09T12:14:57;2.50;97.20
73955;DHT22;62306;52.516;13.290;2023-03-09T12:17:30;2.60;97.10
73955;DHT22;62306;52.516;13.290;2023-03-09T12:19:58;2.60;96.80
73955;DHT22;62306;52.516;13.290;2023-03-09T12:22:29;2.40;96.80
73955;DHT22;62306;52.516;13.290;2023-03-09T12:24:59;2.40;97.70
73955;DHT22;62306;52.516;13.290;2023-03-09T12:27:29;2.50;97.50
73955;DHT22;62306;52.516;13.290;2023-03-09T12:30:08;2.50;97.00
73955;DHT22;62306;52.516;13.290;2023-03-09T12:32:45;2.50;97.50
73955;DHT22;62306;52.516;13.290;2023-03-09T12:38:25;2.70;97.00
73955;DHT22;62306;52.516;13.290;2023-03-09T12:40:53;2.70;96.90
73955;DHT22;62306;52.516;13.290;2023-03-09T12:43:51;2.70;97.10
73955;DHT22;62306;52.516;13.290;2023-03-09T12:49:25;2.80;96.50
73955;DHT22;62306;52.516;13.290;2023-03-09T12:55:09;3.00;96.50
73955;DHT22;62306;52.516;13.290;2023-03-09T12:57:37;3.10;96.10
73955;DHT22;62306;52.516;13.290;2023-03-09T13:00:24;2.90;95.90
73955;DHT22;62306;52.516;13.290;2023-03-09T13:02:55;2.90;96.50
73955;DHT22;62306;52.516;13.290;2023-03-09T13:05:39;3.00;96.80
73955;DHT22;62306;52.516;13.290;2023-03-09T13:08:23;3.10;96.50
73955;DHT22;62306;52.516;13.290;2023-03-09T13:10:51;3.10;96.30
73955;DHT22;62306;52.516;13.290;2023-03-09T13:13:39;3.20;96.00
73955;DHT22;62306;52.516;13.290;2023-03-09T13:22:29;3.10;96.10
73955;DHT22;62306;52.516;13.290;2023-03-09T13:25:30;3.00;96.40
73955;DHT22;62306;52.516;13.290;2023-03-09T13:28:11;3.10;96.50
73955;DHT22;62306;52.516;13.290;2023-03-09T13:30:42;2.90;96.70
73955;DHT22;62306;52.516;13.290;2023-03-09T13:33:15;2.80;96.90
73955;DHT22;62306;52.516;13.290;2023-03-09T13:35:49;2.80;97.20
73955;DHT22;62306;52.516;13.290;2023-03-09T13:38:21;2.90;97.40
73955;DHT22;62306;52.516;13.290;2023-03-09T13:40:52;2.90;97.40
73955;DHT22;62306;52.516;13.290;2023-03-09T13:43:22;2.90;97.00
73955;DHT22;62306;52.516;13.290;2023-03-09T13:45:55;2.80;97.10
73955;DHT22;62306;52.516;13.290;2023-03-09T13:48:23;2.70;97.50
73955;DHT22;62306;52.516;13.290;2023-03-09T13:50:51;2.50;98.30
73955;DHT22;62306;52.516;13.290;2023-03-09T13:53:24;2.60;98.60
73955;DHT22;62306;52.516;13.290;2023-03-09T13:55:56;2.70;99.10
73955;DHT22;62306;52.516;13.290;2023-03-09T13:58:24;2.90;99.50
73955;DHT22;62306;52.516;13.290;2023-03-09T14:00:53;3.20;99.80
73955;DHT22;62306;52.516;13.290;2023-03-09T14:03:21;3.50;97.80
73955;DHT22;62306;52.516;13.290;2023-03-09T14:06:00;3.60;97.40
73955;DHT22;62306;52.516;13.290;2023-03-09T14:08:33;3.60;97.60
73955;DHT22;62306;52.516;13.290;2023-03-09T14:11:05;3.70;96.20
73955;DHT22;62306;52.516;13.290;2023-03-09T14:13:32;3.60;95.90
73955;DHT22;62306;52.516;13.290;2023-03-09T14:16:03;3.40;96.20
73955;DHT22;62306;52.516;13.290;2023-03-09T14:18:37;3.30;97.00
73955;DHT22;62306;52.516;13.290;2023-03-09T14:21:19;3.40;96.80
73955;DHT22;62306;52.516;13.290;2023-03-09T14:23:48;3.30;97.30
73955;DHT22;62306;52.516;13.290;2023-03-09T14:26:23;3.30;97.20
73955;DHT22;62306;52.516;13.290;2023-03-09T14:29:03;3.20;97.30
73955;DHT22;62306;52.516;13.290;2023-03-09T14:31:31;3.10;97.70
73955;DHT22;62306;52.516;13.290;2023-03-09T14:34:02;3.10;98.00
73955;DHT22;62306;52.516;13.290;2023-03-09T14:36:36;3.10;97.80
73955;DHT22;62306;52.516;13.290;2023-03-09T14:39:18;3.00;98.00
73955;DHT22;62306;52.516;13.290;2023-03-09T14:42:02;3.00;98.30
73955;DHT22;62306;52.516;13.290;2023-03-09T14:44:31;3.00;98.10
73955;DHT22;62306;52.516;13.290;2023-03-09T14:46:58;3.10;98.00
73955;DHT22;62306;52.516;13.290;2023-03-09T14:49:25;2.90;98.60
73955;DHT22;62306;52.516;13.290;2023-03-09T14:51:52;2.90;98.60
73955;DHT22;62306;52.516;13.290;2023-03-09T14:54:20;3.00;98.50
73955;DHT22;62306;52.516;13.290;2023-03-09T14:56:47;3.00;98.40
73955;DHT22;62306;52.516;13.290;2023-03-09T14:59:15;3.00;99.10
73955;DHT22;62306;52.516;13.290;2023-03-09T15:01:44;2.90;99.10
73955;DHT22;62306;52.516;13.290;2023-03-09T15:04:15;3.00;99.30
73955;DHT22;62306;52.516;13.290;2023-03-09T15:06:42;3.00;99.20
73955;DHT22;62306;52.516;13.290;2023-03-09T15:09:10;3.00;98.30
73955;DHT22;62306;52.516;13.290;2023-03-09T15:11:39;3.00;98.70
73955;DHT22;62306;52.516;13.290;2023-03-09T15:14:08;3.10;98.30
73955;DHT22;62306;52.516;13.290;2023-03-09T15:16:37;3.10;98.10
73955;DHT22;62306;52.516;13.290;2023-03-09T15:19:03;3.20;98.10
73955;DHT22;62306;52.516;13.290;2023-03-09T15:21:30;3.20;98.20
73955;DHT22;62306;52.516;13.290;2023-03-09T15:23:57;3.10;98.20
73955;DHT22;62306;52.516;13.290;2023-03-09T15:26:24;3.10;98.20
73955;DHT22;62306;52.516;13.290;2023-03-09T15:28:53;3.00;98.60
73955;DHT22;62306;52.516;13.290;2023-03-09T15:31:19;3.10;98.30
73955;DHT22;62306;52.516;13.290;2023-03-09T15:33:46;3.10;98.50
73955;DHT22;62306;52.516;13.290;2023-03-09T15:36:13;2.80;98.90
73955;DHT22;62306;52.516;13.290;2023-03-09T15:38:40;2.80;99.50
73955;DHT22;62306;52.516;13.290;2023-03-09T15:41:07;2.80;99.70
73955;DHT22;62306;52.516;13.290;2023-03-09T15:43:34;2.80;99.80
73955;DHT22;62306;52.516;13.290;2023-03-09T15:46:03;2.80;99.90
73955;DHT22;62306;52.516;13.290;2023-03-09T15:48:30;2.80;99.60
73955;DHT22;62306;52.516;13.290;2023-03-09T15:50:57;3.30;99.50
73955;DHT22;62306;52.516;13.290;2023-03-09T15:53:24;2.70;99.70
73955;DHT22;62306;52.516;13.290;2023-03-09T15:55:55;2.70;99.90
73955;DHT22;62306;52.516;13.290;2023-03-09T15:58:22;2.90;99.50
73955;DHT22;62306;52.516;13.290;2023-03-09T16:00:49;3.00;99.10